HSPN

Details ICAO HSPN (PZU)
Name PORT SUDAN
Region Sudan and South Sudan
Timezone Africa/Khartoum (UTC+2.0)
Plans Departing 41
Arriving 45
Stats Elevation 135 ft / 41 m (AMSL)
Location 19.433620° 37.234079°
Runways 1
Magnetic Variation 3.502° E
Sunrise 2018-05-27 02:54:15 UTC / 2018-05-27 04:54:15 Local
Sunset 2018-05-27 16:05:03 UTC / 2018-05-27 18:05:03 Local
Advertisement - Login to hide

Runways

ID Width Length Bearing (true) Bearing (mag) Surface Threshold Offset Overrun Length
17 148 ft / 45 m 8,241 ft / 2,512 m 167.49° 163.99° Asphalt 0 ft / 0 m 200 ft / 61 m
35 148 ft / 45 m 8,241 ft / 2,512 m 347.49° 343.99° Asphalt 0 ft / 0 m 200 ft / 61 m

Map

Weather


0- 5 10 15 20 25 30 35+ Temperature / ° C

Clouds and Precipitation
Forecast for 2018-05-27 18:00 UTC. Updated 3 hours ago

Ground ~20,000 ft ~40,000 ft Winds

METAR

HSPN 272000Z 34006KT CAVOK 32/18 Q1006

TAF

Not found

Frequencies

Tower 118.10 MHz TWR
Approach 128.10 MHz APP
Warning: Do not use this data for real-world aviation or navigation. No guarantee of current accuracy is given.